Time;durP1;ratioP1;P1;durP2;ratioP2;P2;SDS_P1;SDS_P2;PMS_P1;PMS_P2;Temp;Humidity;BMP_temperature;BMP_pressure;BME280_temperature;BME280_humidity;BME280_pressure;Samples;Min_cycle;Max_cycle;Signal;HPM_P1;HPM_P2
2021/11/11 00:01:36;;;;;;;9.40;5.10;;;;;;;6.23;56.21;97578.17;105298;1313;27738;-85
2021/11/11 00:04:09;;;;;;;7.40;4.30;;;;;;;6.19;56.35;97589.70;105278;1309;27630;-85
2021/11/11 00:06:41;;;;;;;7.70;4.30;;;;;;;6.14;56.26;97593.37;105296;1310;25731;-84
2021/11/11 00:09:12;;;;;;;7.00;3.60;;;;;;;6.16;56.43;97592.41;105328;1314;27072;-85
2021/11/11 00:11:43;;;;;;;6.60;4.60;;;;;;;6.19;56.61;97604.23;105330;1314;28553;-84
2021/11/11 00:14:14;;;;;;;7.30;4.20;;;;;;;6.14;56.60;97604.58;105269;1314;38586;-84
2021/11/11 00:16:44;;;;;;;6.20;3.40;;;;;;;6.08;56.85;97606.71;105287;1314;26735;-84
2021/11/11 00:19:13;;;;;;;;;;;;;;;6.07;56.92;97612.85;105336;1315;27933;-85
2021/11/11 00:21:44;;;;;;;6.80;3.70;;;;;;;6.07;57.10;97616.20;105268;1310;26078;-85
2021/11/11 00:24:16;;;;;;;7.30;4.00;;;;;;;6.03;57.22;97613.98;105288;1309;26366;-85
2021/11/11 00:26:47;;;;;;;6.70;3.80;;;;;;;5.94;57.46;97612.36;105359;1315;26353;-85
2021/11/11 00:29:18;;;;;;;5.60;2.90;;;;;;;5.92;57.84;97607.42;105304;1310;28276;-85
2021/11/11 00:31:49;;;;;;;7.20;4.00;;;;;;;5.90;58.16;97604.76;105309;1309;30874;-85
2021/11/11 00:34:18;;;;;;;;;;;;;;;5.89;58.09;97603.81;105286;1313;26561;-85
2021/11/11 00:36:49;;;;;;;10.30;5.00;;;;;;;5.86;58.25;97598.20;105241;1309;25850;-85
2021/11/11 00:39:18;;;;;;;;;;;;;;;5.84;58.50;97590.69;105361;1309;27496;-85
2021/11/11 00:41:49;;;;;;;9.50;4.70;;;;;;;5.83;58.49;97588.36;105333;1309;28207;-85
2021/11/11 00:44:20;;;;;;;8.20;5.00;;;;;;;5.81;58.71;97588.67;105300;1309;27796;-85
2021/11/11 00:46:51;;;;;;;6.00;3.30;;;;;;;5.80;58.89;97576.95;105379;1310;26455;-85
2021/11/11 00:49:20;;;;;;;;;;;;;;;5.79;59.22;97578.34;105365;1310;26249;-85
2021/11/11 00:51:51;;;;;;;7.60;3.80;;;;;;;5.78;59.46;97577.34;105339;1310;25008;-85
2021/11/11 00:54:21;;;;;;;;;;;;;;;5.79;59.62;97580.58;105312;1313;36884;-85
2021/11/11 00:56:52;;;;;;;10.70;5.30;;;;;;;5.80;59.44;97583.27;105296;1309;26190;-85
2021/11/11 00:59:22;;;;;;;8.40;5.20;;;;;;;5.77;59.89;97580.38;105254;1315;26981;-85
2021/11/11 01:01:51;;;;;;;;;;;;;;;5.72;59.97;97574.52;105329;1309;29145;-85
2021/11/11 01:04:22;;;;;;;6.80;3.70;;;;;;;5.67;60.17;97569.60;105328;1313;26471;-85
2021/11/11 01:06:52;;;;;;;;;;;;;;;5.60;60.68;97571.69;105351;1310;28261;-85
2021/11/11 01:09:23;;;;;;;9.30;4.70;;;;;;;5.54;60.63;97570.54;105361;1314;26430;-85
2021/11/11 01:11:53;;;;;;;6.70;4.40;;;;;;;5.48;60.61;97583.55;105324;1313;26147;-85
2021/11/11 01:14:22;;;;;;;;;;;;;;;5.47;60.77;97581.46;105325;1314;28869;-86
2021/11/11 01:16:53;;;;;;;8.00;5.00;;;;;;;5.45;60.98;97579.21;105358;1315;27331;-85
2021/11/11 01:19:25;;;;;;;7.90;4.70;;;;;;;5.43;60.85;97574.59;105345;1309;27326;-85
2021/11/11 01:21:55;;;;;;;5.80;3.50;;;;;;;5.50;60.99;97569.98;105362;1315;25468;-85
2021/11/11 01:24:26;;;;;;;9.00;4.80;;;;;;;5.56;61.06;97568.85;105418;1310;27263;-85
2021/11/11 01:26:55;;;;;;;;;;;;;;;5.57;60.89;97563.13;105402;1315;34310;-84
2021/11/11 01:29:26;;;;;;;8.50;4.30;;;;;;;5.58;60.88;97562.63;105374;1315;26117;-85
2021/11/11 01:31:57;;;;;;;7.20;4.70;;;;;;;5.59;60.91;97561.35;105402;1314;25686;-85
2021/11/11 01:34:28;;;;;;;7.70;4.70;;;;;;;5.58;60.84;97555.22;105389;1315;28373;-85
2021/11/11 01:36:59;;;;;;;8.20;4.20;;;;;;;5.57;60.94;97563.24;105354;1311;41953;-85
2021/11/11 01:39:30;;;;;;;7.00;4.60;;;;;;;5.57;60.97;97564.45;105275;1309;27058;-82
2021/11/11 01:42:01;;;;;;;7.60;4.80;;;;;;;5.62;61.22;97567.15;105312;1314;36869;-85
2021/11/11 01:44:32;;;;;;;8.60;4.80;;;;;;;5.70;61.23;97566.11;105320;1315;26301;-84
2021/11/11 01:47:01;;;;;;;;;;;;;;;5.76;61.18;97563.35;105349;1310;26263;-84
2021/11/11 01:49:32;;;;;;;8.30;4.90;;;;;;;5.77;61.21;97557.27;105185;1312;38380;-85
2021/11/11 01:52:01;;;;;;;;;;;;;;;5.77;61.11;97561.08;105294;1315;25852;-84
2021/11/11 01:54:32;;;;;;;7.90;5.10;;;;;;;5.76;61.26;97563.83;105327;1310;28276;-84
2021/11/11 01:57:03;;;;;;;6.70;3.90;;;;;;;5.78;61.31;97563.27;105306;1313;29575;-84
2021/11/11 01:59:34;;;;;;;4.80;2.70;;;;;;;5.79;61.61;97561.95;105349;1316;26116;-85
2021/11/11 02:02:03;;;;;;;;;;;;;;;5.80;61.58;97556.86;105310;1314;27211;-85
2021/11/11 02:04:34;;;;;;;6.30;3.70;;;;;;;5.86;61.48;97560.01;105320;1315;28273;-85
2021/11/11 02:07:03;;;;;;;;;;;;;;;5.88;61.66;97553.21;105319;1310;28119;-85
2021/11/11 02:09:34;;;;;;;6.80;3.70;;;;;;;5.87;61.84;97553.34;105286;1313;41042;-84
2021/11/11 02:12:06;;;;;;;7.00;4.50;;;;;;;5.85;62.07;97557.80;105343;1315;26857;-85
2021/11/11 02:14:36;;;;;;;8.10;5.60;;;;;;;5.77;62.12;97554.41;105335;1313;25049;-85
2021/11/11 02:17:06;;;;;;;;;;;;;;;5.71;62.29;97549.88;105359;1313;27363;-85
2021/11/11 02:19:36;;;;;;;8.40;5.50;;;;;;;5.64;62.81;97548.38;105310;1314;27185;-85
2021/11/11 02:22:07;;;;;;;6.70;4.50;;;;;;;5.61;63.09;97543.08;105348;1310;25434;-85
2021/11/11 02:24:38;;;;;;;6.50;4.10;;;;;;;5.61;63.37;97540.16;105336;1309;25694;-85
2021/11/11 02:27:09;;;;;;;6.60;4.10;;;;;;;5.63;63.84;97542.00;105319;1316;28699;-85
2021/11/11 02:29:39;;;;;;;6.70;4.00;;;;;;;5.63;64.10;97546.98;105312;1310;27046;-85
2021/11/11 02:32:10;;;;;;;;;;;;;;;5.65;64.46;97530.85;105391;1316;27505;-85
2021/11/11 02:34:41;;;;;;;10.30;5.90;;;;;;;5.67;64.42;97527.48;105330;1315;25811;-85
2021/11/11 02:37:12;;;;;;;9.30;6.20;;;;;;;5.65;64.67;97525.95;105315;1313;26055;-85
2021/11/11 02:39:41;;;;;;;;;;;;;;;5.63;64.69;97515.09;105287;1313;34004;-85
2021/11/11 02:42:11;;;;;;;9.70;5.70;;;;;;;5.62;64.65;97518.86;105264;1314;26570;-84
2021/11/11 02:44:44;;;;;;;8.70;5.60;;;;;;;5.62;64.36;97512.14;105138;1314;28985;-85
2021/11/11 02:47:15;;;;;;;8.40;5.90;;;;;;;5.62;64.19;97513.91;105356;1310;29372;-86
2021/11/11 02:49:46;;;;;;;8.90;5.50;;;;;;;5.67;64.11;97514.68;105300;1314;25970;-85
2021/11/11 02:52:16;;;;;;;;;;;;;;;5.66;63.79;97513.92;105361;1314;26261;-85
2021/11/11 02:54:47;;;;;;;8.80;5.20;;;;;;;5.59;63.63;97512.27;105306;1315;27699;-85
2021/11/11 02:57:21;;;;;;;;;;;;;;;5.58;63.74;97517.87;105300;1315;27196;-85
2021/11/11 02:59:55;;;;;;;7.30;4.50;;;;;;;5.65;63.73;97509.96;105352;1315;28162;-85
2021/11/11 03:02:29;;;;;;;10.00;6.20;;;;;;;5.70;63.86;97508.08;105425;1309;25580;-85
2021/11/11 03:05:02;;;;;;;9.90;6.20;;;;;;;5.72;63.68;97504.85;105363;1309;28410;-85
2021/11/11 03:07:32;;;;;;;10.50;5.20;;;;;;;5.71;63.92;97496.32;105324;1309;26606;-85
2021/11/11 03:10:02;;;;;;;;;;;;;;;5.77;63.88;97494.69;105360;1316;24661;-85
2021/11/11 03:12:33;;;;;;;8.60;5.40;;;;;;;5.79;63.85;97505.41;105373;1314;25054;-85
2021/11/11 03:15:04;;;;;;;8.90;5.40;;;;;;;5.80;63.82;97503.64;105293;1314;26817;-85
2021/11/11 03:17:35;;;;;;;12.00;6.00;;;;;;;5.81;63.76;97498.94;105337;1313;27523;-85
2021/11/11 03:20:08;;;;;;;8.60;5.50;;;;;;;5.82;63.80;97508.76;105387;1310;25226;-85
2021/11/11 03:22:42;;;;;;;10.10;5.50;;;;;;;5.79;63.45;97508.42;105335;1312;27597;-85
2021/11/11 03:25:15;;;;;;;9.00;5.40;;;;;;;5.74;63.70;97514.27;105373;1312;26565;-85
2021/11/11 03:27:47;;;;;;;10.00;6.10;;;;;;;5.71;63.88;97513.08;105331;1313;25882;-85
2021/11/11 03:30:19;;;;;;;6.70;3.90;;;;;;;5.73;63.80;97511.25;105302;1311;28322;-85
2021/11/11 03:32:51;;;;;;;7.90;5.30;;;;;;;5.76;63.87;97509.95;105331;1313;26521;-85
2021/11/11 03:35:22;;;;;;;9.50;5.80;;;;;;;5.73;63.76;97510.05;105340;1310;25945;-85
2021/11/11 03:37:54;;;;;;;7.20;3.70;;;;;;;5.69;63.74;97505.63;105332;1313;27345;-85
2021/11/11 03:40:28;;;;;;;8.50;5.20;;;;;;;5.67;63.90;97501.69;105328;1315;26788;-85
2021/11/11 03:43:02;;;;;;;8.30;4.50;;;;;;;5.68;63.83;97498.23;105406;1311;26547;-85
2021/11/11 03:45:33;;;;;;;11.20;6.70;;;;;;;5.70;63.78;97498.33;105383;1309;27400;-85
2021/11/11 03:48:05;;;;;;;8.30;4.70;;;;;;;5.70;63.74;97481.24;105351;1311;29208;-85
2021/11/11 03:50:37;;;;;;;8.50;5.20;;;;;;;5.72;63.78;97481.48;105376;1310;26105;-85
2021/11/11 03:53:08;;;;;;;8.30;4.90;;;;;;;5.68;63.77;97476.77;105314;1316;27368;-85
2021/11/11 03:55:39;;;;;;;10.80;5.40;;;;;;;5.69;63.97;97474.05;105389;1310;25689;-85
2021/11/11 03:58:15;;;;;;;9.60;6.30;;;;;;;5.69;63.89;97472.48;105345;1315;27981;-85
2021/11/11 04:00:46;;;;;;;10.70;6.00;;;;;;;5.64;63.69;97479.67;105334;1316;29253;-85
2021/11/11 04:03:17;;;;;;;8.50;5.60;;;;;;;5.60;63.64;97475.27;105366;1313;26164;-86
2021/11/11 04:05:48;;;;;;;8.00;5.50;;;;;;;5.56;63.82;97472.95;105407;1309;25770;-85
2021/11/11 04:08:19;;;;;;;9.20;5.80;;;;;;;5.52;63.86;97470.48;105358;1316;25773;-85
2021/11/11 04:10:49;;;;;;;8.80;5.80;;;;;;;5.48;63.94;97469.77;105352;1313;27984;-85
2021/11/11 04:13:21;;;;;;;11.00;5.50;;;;;;;5.49;64.28;97469.45;105339;1313;27061;-85
2021/11/11 04:15:51;;;;;;;9.40;6.10;;;;;;;5.54;64.16;97462.79;105278;1315;33566;-85
2021/11/11 04:18:20;;;;;;;;;;;;;;;5.54;64.01;97456.86;105337;1314;28055;-85
2021/11/11 04:20:52;;;;;;;10.40;5.20;;;;;;;5.57;64.17;97453.86;105353;1314;26754;-85
2021/11/11 04:23:24;;;;;;;8.10;4.70;;;;;;;5.56;64.23;97445.96;105334;1313;26530;-85
2021/11/11 04:26:00;;;;;;;7.70;5.10;;;;;;;5.56;64.05;97444.70;105369;1316;26060;-85
2021/11/11 04:28:32;;;;;;;8.00;5.60;;;;;;;5.62;64.26;97442.58;105345;1313;26499;-85
2021/11/11 04:31:08;;;;;;;7.60;5.00;;;;;;;5.59;63.85;97439.30;105341;1312;28390;-85
2021/11/11 04:33:41;;;;;;;10.00;5.60;;;;;;;5.58;64.15;97440.17;105338;1313;28757;-84
2021/11/11 04:36:24;;;;;;;7.80;4.70;;;;;;;5.61;63.90;97444.17;105361;1313;27003;-85
2021/11/11 04:39:06;;;;;;;9.30;6.00;;;;;;;5.61;64.00;97445.23;105434;1313;28309;-85
2021/11/11 04:41:55;;;;;;;11.20;5.60;;;;;;;5.62;63.92;97430.11;105340;1312;32906;-85
2021/11/11 04:44:32;;;;;;;8.30;5.00;;;;;;;5.66;63.90;97429.49;105411;1313;27525;-85
2021/11/11 04:50:23;;;;;;;9.00;6.00;;;;;;;5.75;63.75;97430.73;105343;1309;28921;-85
2021/11/11 04:59:25;;;;;;;10.10;6.20;;;;;;;5.76;63.95;97431.08;105343;1313;27102;-85
2021/11/11 05:01:36;;;;;;;8.40;5.10;;;;;;;5.77;63.70;97427.30;105329;1312;31796;-85
2021/11/11 05:04:07;;;;;;;8.00;4.80;;;;;;;5.77;63.61;97429.04;105392;1311;26847;-85
2021/11/11 05:06:38;;;;;;;9.70;5.50;;;;;;;5.77;63.67;97425.20;105362;1310;27261;-85
2021/11/11 05:09:08;;;;;;;9.50;5.10;;;;;;;5.78;63.68;97418.30;105367;1312;28894;-85
2021/11/11 05:11:39;;;;;;;9.00;5.80;;;;;;;5.80;63.63;97414.46;105310;1310;28648;-85
2021/11/11 05:14:08;;;;;;;;;;;;;;;5.83;63.79;97423.52;105335;1316;26675;-84
2021/11/11 05:16:39;;;;;;;8.30;5.30;;;;;;;5.84;63.66;97433.13;105331;1312;28558;-85
2021/11/11 05:19:10;;;;;;;6.70;4.10;;;;;;;5.85;63.49;97437.77;105284;1316;26839;-84
2021/11/11 05:21:40;;;;;;;6.20;3.30;;;;;;;5.86;63.40;97444.38;105383;1313;28003;-84
2021/11/11 05:24:11;;;;;;;9.60;4.80;;;;;;;5.90;63.14;97440.75;105407;1316;26082;-85
2021/11/11 05:26:42;;;;;;;6.90;4.10;;;;;;;5.92;63.15;97442.55;105355;1308;25956;-85
2021/11/11 05:29:13;;;;;;;8.10;5.30;;;;;;;5.94;62.84;97444.55;105333;1313;26258;-85
2021/11/11 05:31:44;;;;;;;7.20;4.50;;;;;;;5.98;62.70;97441.73;105356;1316;26821;-84
2021/11/11 05:34:14;;;;;;;9.10;5.10;;;;;;;5.98;62.72;97450.52;105364;1312;28323;-84
2021/11/11 05:36:45;;;;;;;9.40;5.40;;;;;;;5.98;62.66;97455.16;105376;1316;27111;-85
2021/11/11 05:39:16;;;;;;;7.80;5.50;;;;;;;5.92;62.91;97452.71;105225;1312;227130;-84
2021/11/11 05:41:45;;;;;;;;;;;;;;;5.89;62.79;97445.20;105362;1312;25753;-85
2021/11/11 05:44:16;;;;;;;9.90;5.70;;;;;;;5.85;63.16;97450.77;105285;1314;28654;-85
2021/11/11 05:46:47;;;;;;;9.40;5.50;;;;;;;5.81;63.44;97450.79;105381;1313;25154;-85
2021/11/11 05:49:17;;;;;;;9.10;3.90;;;;;;;5.79;63.37;97451.00;105305;1315;28197;-85
2021/11/11 05:51:47;;;;;;;;;;;;;;;5.78;63.36;97452.35;105361;1313;27136;-85
2021/11/11 05:54:17;;;;;;;8.60;5.30;;;;;;;5.78;63.69;97453.20;105332;1313;27426;-85
2021/11/11 05:56:48;;;;;;;8.70;5.20;;;;;;;5.81;63.80;97448.37;105344;1313;28365;-85
2021/11/11 05:59:19;;;;;;;8.90;5.50;;;;;;;5.85;63.90;97441.45;105330;1309;26065;-85
2021/11/11 06:01:50;;;;;;;8.60;5.30;;;;;;;5.85;63.75;97444.66;105350;1316;25945;-85
2021/11/11 06:04:21;;;;;;;9.60;4.90;;;;;;;5.86;63.86;97439.86;105264;1316;26340;-85
2021/11/11 06:06:52;;;;;;;8.20;5.00;;;;;;;5.90;63.75;97441.75;105372;1312;28659;-85
2021/11/11 06:09:21;;;;;;;;;;;;;;;5.94;63.52;97443.48;105314;1313;29516;-84
2021/11/11 06:11:52;;;;;;;7.20;4.40;;;;;;;6.00;63.66;97440.40;105313;1313;28796;-84
2021/11/11 06:14:23;;;;;;;7.30;4.50;;;;;;;6.11;63.64;97448.72;105328;1316;45941;-85
2021/11/11 06:16:54;;;;;;;7.90;5.50;;;;;;;6.23;63.56;97451.46;105311;1312;33887;-84
2021/11/11 06:19:24;;;;;;;9.70;5.60;;;;;;;6.40;63.31;97449.41;105343;1315;27598;-84
2021/11/11 06:21:54;;;;;;;;;;;;;;;6.54;63.20;97452.92;105327;1311;26272;-84
2021/11/11 06:24:25;;;;;;;8.10;5.20;;;;;;;6.64;63.04;97453.04;105339;1315;28072;-84
2021/11/11 06:26:56;;;;;;;6.50;4.20;;;;;;;6.68;62.59;97454.29;105349;1316;25293;-84
2021/11/11 06:29:27;;;;;;;8.80;4.40;;;;;;;6.72;62.44;97456.20;105361;1312;29803;-84
2021/11/11 06:31:59;;;;;;;8.40;5.00;;;;;;;6.90;62.29;97443.02;105417;1312;36266;-85
2021/11/11 06:34:29;;;;;;;9.40;5.20;;;;;;;7.19;61.84;97442.58;105407;1312;27439;-84
2021/11/11 06:37:00;;;;;;;10.00;5.20;;;;;;;7.35;61.58;97438.11;105362;1315;29208;-84
2021/11/11 06:39:31;;;;;;;9.40;5.50;;;;;;;7.51;61.15;97446.46;105322;1315;25818;-83
2021/11/11 06:42:02;;;;;;;8.80;5.50;;;;;;;7.75;60.72;97442.91;105313;1310;28135;-83
2021/11/11 06:44:33;;;;;;;7.50;5.40;;;;;;;8.02;59.94;97443.60;105348;1313;27683;-83
2021/11/11 06:47:07;;;;;;;7.80;5.10;;;;;;;8.25;59.40;97442.95;105310;1312;28570;-83
2021/11/11 06:49:37;;;;;;;9.40;5.70;;;;;;;8.59;58.96;97437.20;105326;1315;27412;-84
2021/11/11 06:52:09;;;;;;;8.00;5.20;;;;;;;8.85;58.00;97430.12;105312;1312;26987;-84
2021/11/11 06:54:42;;;;;;;7.40;5.10;;;;;;;9.00;57.51;97430.88;105377;1313;31213;-84
2021/11/11 06:57:13;;;;;;;7.80;5.30;;;;;;;9.29;58.10;97434.14;105322;1310;27465;-84
2021/11/11 06:59:44;;;;;;;8.00;4.90;;;;;;;9.91;57.40;97429.77;105297;1313;28558;-84
2021/11/11 07:02:15;;;;;;;7.70;5.40;;;;;;;10.28;55.94;97424.23;105358;1312;28728;-84
2021/11/11 07:04:46;;;;;;;7.00;4.10;;;;;;;10.35;55.37;97420.88;105282;1309;27813;-84
2021/11/11 07:07:17;;;;;;;7.20;4.90;;;;;;;10.25;54.83;97424.38;105288;1310;27707;-84
2021/11/11 07:09:49;;;;;;;7.10;4.80;;;;;;;10.55;55.35;97418.45;105370;1310;32083;-84
2021/11/11 07:12:20;;;;;;;7.40;5.10;;;;;;;11.07;54.93;97412.70;105276;1316;30290;-84
2021/11/11 07:14:51;;;;;;;7.40;4.40;;;;;;;11.33;53.89;97410.17;105336;1313;27147;-83
2021/11/11 07:17:22;;;;;;;8.50;5.10;;;;;;;11.18;52.05;97406.09;105395;1309;27400;-84
2021/11/11 07:19:53;;;;;;;9.10;5.60;;;;;;;10.64;52.18;97410.58;105292;1310;26586;-83
2021/11/11 07:22:24;;;;;;;7.20;4.60;;;;;;;10.05;52.55;97405.35;105290;1312;27005;-84
2021/11/11 07:24:55;;;;;;;8.30;5.00;;;;;;;9.72;53.19;97405.10;105357;1310;27910;-84
2021/11/11 07:27:26;;;;;;;7.80;4.70;;;;;;;9.83;53.43;97407.77;105383;1316;30346;-84
2021/11/11 07:29:57;;;;;;;5.50;4.20;;;;;;;10.24;53.82;97410.20;105429;1313;25008;-83
2021/11/11 07:32:29;;;;;;;6.40;4.60;;;;;;;10.48;53.11;97411.46;105427;1313;28106;-84
2021/11/11 07:35:00;;;;;;;7.40;4.80;;;;;;;10.43;53.36;97409.16;105347;1310;26863;-84
2021/11/11 07:37:31;;;;;;;9.70;5.30;;;;;;;10.30;53.06;97414.05;105403;1309;25241;-83
2021/11/11 07:40:02;;;;;;;7.90;4.80;;;;;;;10.21;53.44;97408.38;105348;1316;27215;-83
2021/11/11 07:42:34;;;;;;;9.50;4.80;;;;;;;10.08;52.76;97407.13;105308;1314;26352;-83
2021/11/11 07:45:06;;;;;;;8.20;5.20;;;;;;;9.62;53.05;97411.64;105317;1309;26930;-84
2021/11/11 07:47:37;;;;;;;7.70;5.40;;;;;;;9.59;53.93;97415.79;105311;1312;27571;-83
2021/11/11 07:50:11;;;;;;;7.50;5.20;;;;;;;10.22;54.41;97408.75;105362;1312;28575;-83
2021/11/11 07:52:43;;;;;;;7.00;4.20;;;;;;;10.55;53.00;97408.64;105217;1309;27221;-83
2021/11/11 07:55:15;;;;;;;5.80;4.10;;;;;;;10.40;52.43;97404.69;105332;1310;27606;-83
2021/11/11 07:57:47;;;;;;;8.90;5.40;;;;;;;10.16;51.89;97405.16;105319;1309;28021;-83
2021/11/11 08:00:21;;;;;;;6.30;4.50;;;;;;;9.73;52.59;97408.19;105353;1309;27717;-83
2021/11/11 08:02:53;;;;;;;6.80;4.20;;;;;;;9.62;53.26;97404.92;105307;1313;27828;-83
2021/11/11 08:05:24;;;;;;;8.60;5.50;;;;;;;9.85;53.77;97405.58;105354;1314;29613;-83
2021/11/11 08:07:55;;;;;;;9.30;5.10;;;;;;;10.33;54.13;97406.77;105357;1309;27778;-83
2021/11/11 08:10:27;;;;;;;9.60;5.40;;;;;;;10.95;53.80;97399.25;105372;1310;26701;-83
2021/11/11 08:12:59;;;;;;;9.10;5.30;;;;;;;11.14;52.36;97387.41;105409;1309;28377;-83
2021/11/11 08:15:31;;;;;;;10.30;5.30;;;;;;;11.06;52.25;97390.20;105397;1311;25776;-83
2021/11/11 08:18:03;;;;;;;8.20;5.10;;;;;;;11.09;51.89;97391.11;105271;1315;27091;-82
2021/11/11 08:20:34;;;;;;;9.20;5.40;;;;;;;10.97;51.59;97391.45;105359;1312;26386;-83
2021/11/11 08:23:05;;;;;;;7.90;4.90;;;;;;;10.91;51.48;97389.99;105326;1315;25489;-83
2021/11/11 08:25:36;;;;;;;8.10;5.00;;;;;;;10.81;51.62;97393.52;105373;1310;27240;-84
2021/11/11 08:28:08;;;;;;;7.60;4.80;;;;;;;10.88;51.60;97387.77;105318;1309;26805;-83
2021/11/11 08:30:39;;;;;;;9.30;5.50;;;;;;;10.92;51.44;97383.00;105337;1310;30876;-83
2021/11/11 08:33:10;;;;;;;7.70;4.90;;;;;;;10.99;51.13;97377.14;105338;1313;33669;-83
2021/11/11 08:35:42;;;;;;;7.60;4.70;;;;;;;10.80;50.68;97380.20;105312;1313;26770;-83
2021/11/11 08:38:14;;;;;;;7.00;4.70;;;;;;;10.73;50.97;97382.15;105328;1315;26336;-83
2021/11/11 08:40:46;;;;;;;8.30;4.90;;;;;;;10.77;51.05;97381.20;105328;1315;27730;-83
2021/11/11 08:43:17;;;;;;;7.20;5.00;;;;;;;10.89;51.26;97378.33;105340;1310;24330;-83
2021/11/11 08:45:49;;;;;;;7.40;4.70;;;;;;;10.94;50.85;97379.55;105344;1313;25175;-83
2021/11/11 08:48:20;;;;;;;8.30;4.90;;;;;;;10.87;51.29;97378.80;105356;1315;25789;-83
2021/11/11 08:50:51;;;;;;;8.60;5.60;;;;;;;10.80;51.45;97378.18;105337;1313;27442;-83
2021/11/11 08:53:22;;;;;;;7.40;5.20;;;;;;;10.75;51.21;97382.90;105304;1312;29862;-83
2021/11/11 08:55:52;;;;;;;6.90;4.70;;;;;;;10.77;51.70;97383.48;105309;1315;29243;-83
2021/11/11 08:58:23;;;;;;;5.70;3.70;;;;;;;10.82;51.37;97381.31;105191;1309;43375;-83
2021/11/11 09:00:55;;;;;;;7.60;4.60;;;;;;;10.72;50.91;97376.04;105360;1313;26080;-83
2021/11/11 09:03:26;;;;;;;9.30;5.70;;;;;;;10.70;51.35;97375.51;105365;1310;37392;-84
2021/11/11 09:05:57;;;;;;;5.80;3.90;;;;;;;10.75;51.07;97374.67;105409;1311;40106;-84
2021/11/11 09:08:29;;;;;;;8.40;5.50;;;;;;;10.69;50.80;97373.31;105386;1310;23704;-83
2021/11/11 09:11:01;;;;;;;8.80;5.00;;;;;;;10.76;51.04;97369.58;105439;1310;24677;-83
2021/11/11 09:13:34;;;;;;;7.60;4.90;;;;;;;10.87;50.65;97366.02;105339;1316;24711;-82
2021/11/11 09:16:06;;;;;;;9.60;5.90;;;;;;;10.87;50.40;97365.17;105264;1314;25616;-83
2021/11/11 09:18:38;;;;;;;7.70;4.70;;;;;;;10.99;50.27;97365.98;105194;1315;28465;-83
2021/11/11 09:21:13;;;;;;;8.10;4.80;;;;;;;11.09;49.89;97363.98;105352;1312;27653;-84
2021/11/11 09:23:46;;;;;;;8.10;4.90;;;;;;;11.11;49.61;97366.80;105353;1313;27406;-83
2021/11/11 09:26:17;;;;;;;6.30;3.60;;;;;;;11.11;49.44;97365.21;105384;1311;26999;-84
2021/11/11 09:28:48;;;;;;;6.90;4.30;;;;;;;11.11;49.54;97355.71;105369;1311;27594;-83
2021/11/11 09:31:19;;;;;;;8.60;5.40;;;;;;;11.20;49.89;97350.73;105357;1310;26696;-83
2021/11/11 09:33:51;;;;;;;8.20;5.60;;;;;;;11.40;50.38;97351.45;105313;1314;25307;-83
2021/11/11 09:36:22;;;;;;;8.80;5.40;;;;;;;11.73;50.34;97356.18;105312;1313;27165;-83
2021/11/11 09:38:55;;;;;;;10.30;5.90;;;;;;;11.94;50.10;97355.81;105295;1309;24098;-84
2021/11/11 09:41:26;;;;;;;7.50;5.40;;;;;;;12.07;49.61;97350.14;105367;1309;25508;-83
2021/11/11 09:43:56;;;;;;;11.90;6.10;;;;;;;12.13;49.45;97346.85;105399;1316;24128;-83
2021/11/11 09:46:28;;;;;;;9.70;5.50;;;;;;;12.27;49.47;97348.98;105394;1315;25110;-83
2021/11/11 09:48:59;;;;;;;9.10;5.50;;;;;;;12.40;49.00;97343.42;105420;1311;25705;-84
2021/11/11 09:51:30;;;;;;;7.00;5.20;;;;;;;12.44;48.69;97336.17;105438;1311;25469;-83
2021/11/11 09:59:40;;;;;;;8.80;5.70;;;;;;;12.56;48.02;97324.48;105350;1309;25782;-83
2021/11/11 10:02:12;;;;;;;8.80;5.30;;;;;;;12.60;48.02;97325.30;105355;1312;25635;-84
2021/11/11 10:04:43;;;;;;;7.90;5.20;;;;;;;12.63;47.77;97317.05;105314;1310;26614;-84
2021/11/11 10:07:14;;;;;;;8.50;5.20;;;;;;;12.74;48.19;97309.91;105300;1309;27203;-84
2021/11/11 10:09:46;;;;;;;8.10;4.90;;;;;;;12.88;47.53;97305.41;105335;1311;25940;-83
2021/11/11 10:12:23;;;;;;;8.00;4.60;;;;;;;12.95;46.97;97306.55;105357;1312;24660;-84
2021/11/11 10:15:10;;;;;;;8.10;5.30;;;;;;;12.98;46.73;97298.98;105338;1309;26516;-84
2021/11/11 10:17:45;;;;;;;8.00;4.80;;;;;;;13.00;46.77;97299.11;105387;1312;25974;-84
2021/11/11 10:20:16;;;;;;;6.70;4.50;;;;;;;13.06;46.47;97294.01;105334;1310;27154;-84
2021/11/11 10:22:47;;;;;;;8.00;5.30;;;;;;;13.10;46.17;97285.06;105303;1310;29826;-84
2021/11/11 10:25:18;;;;;;;6.50;4.30;;;;;;;12.99;45.54;97277.35;105305;1309;27448;-84
2021/11/11 10:27:57;;;;;;;6.40;4.40;;;;;;;13.01;46.35;97277.17;105373;1312;27183;-84
2021/11/11 10:30:31;;;;;;;9.10;5.30;;;;;;;13.10;45.89;97274.88;105352;1309;27598;-84
2021/11/11 10:33:12;;;;;;;7.90;4.90;;;;;;;13.13;46.06;97281.41;105399;1313;26898;-83
2021/11/11 10:35:53;;;;;;;6.40;4.20;;;;;;;13.18;45.94;97280.80;105345;1310;27399;-84
2021/11/11 10:38:26;;;;;;;8.40;4.80;;;;;;;13.22;45.71;97277.04;105309;1311;30399;-84
2021/11/11 10:40:57;;;;;;;7.70;4.70;;;;;;;13.21;45.85;97273.11;105352;1310;27206;-84
2021/11/11 10:43:31;;;;;;;7.70;4.80;;;;;;;13.37;46.25;97271.45;105397;1309;27363;-84
2021/11/11 10:46:02;;;;;;;7.20;4.60;;;;;;;13.46;45.47;97273.44;105322;1309;41517;-84
2021/11/11 10:48:32;;;;;;;;;;;;;;;13.42;45.96;97270.19;105368;1309;26420;-84
2021/11/11 10:51:07;;;;;;;7.40;5.20;;;;;;;13.55;46.45;97271.50;105182;1313;30665;-83
2021/11/11 10:53:39;;;;;;;6.90;4.70;;;;;;;13.77;46.45;97269.42;105394;1311;27457;-83
2021/11/11 10:56:10;;;;;;;7.50;4.80;;;;;;;13.93;46.37;97269.20;105350;1310;26424;-84
2021/11/11 10:58:43;;;;;;;16.90;10.40;;;;;;;14.04;45.88;97271.58;105335;1315;28036;-84
2021/11/11 11:01:19;;;;;;;17.10;11.10;;;;;;;13.75;46.55;97272.90;105330;1310;25958;-84
2021/11/11 11:03:51;;;;;;;15.10;10.40;;;;;;;13.64;47.42;97274.02;105301;1309;25586;-84
2021/11/11 11:06:26;;;;;;;16.40;10.10;;;;;;;13.59;47.73;97272.84;105284;1310;27395;-84
2021/11/11 11:08:59;;;;;;;18.70;11.60;;;;;;;13.56;48.11;97274.16;105310;1316;25786;-84
2021/11/11 11:11:33;;;;;;;18.50;11.80;;;;;;;13.56;48.41;97274.69;105356;1311;30022;-83
2021/11/11 11:14:12;;;;;;;19.50;12.50;;;;;;;13.63;48.51;97275.56;105395;1309;27993;-84
2021/11/11 11:16:43;;;;;;;18.50;12.10;;;;;;;13.67;48.69;97272.52;105337;1311;27306;-84
2021/11/11 11:19:18;;;;;;;19.90;12.30;;;;;;;13.71;48.53;97274.86;105326;1310;33381;-84
2021/11/11 11:21:51;;;;;;;19.30;11.90;;;;;;;13.62;48.29;97280.27;105356;1309;26760;-84
2021/11/11 11:24:27;;;;;;;18.70;12.20;;;;;;;13.51;48.48;97280.10;105339;1309;28473;-84
2021/11/11 11:27:03;;;;;;;20.90;12.70;;;;;;;13.51;48.68;97277.03;105438;1311;28849;-83
2021/11/11 11:29:42;;;;;;;21.80;12.80;;;;;;;13.56;48.84;97275.23;105235;1316;27976;-83
2021/11/11 11:32:19;;;;;;;21.60;13.50;;;;;;;13.45;48.33;97277.29;105336;1311;27543;-84
2021/11/11 11:34:53;;;;;;;20.20;13.10;;;;;;;13.28;48.75;97273.33;105315;1310;28295;-84
2021/11/11 11:37:30;;;;;;;19.80;12.60;;;;;;;13.26;48.87;97271.91;105307;1311;29317;-82
2021/11/11 11:40:03;;;;;;;18.90;12.20;;;;;;;13.14;48.70;97272.58;105416;1309;24977;-82
2021/11/11 11:42:37;;;;;;;21.10;12.50;;;;;;;13.02;48.85;97276.70;105345;1311;27926;-82
2021/11/11 11:45:10;;;;;;;20.30;13.00;;;;;;;12.96;48.72;97279.29;105299;1309;25353;-82
2021/11/11 11:47:47;;;;;;;21.10;12.30;;;;;;;12.88;49.20;97277.73;105344;1309;25796;-82
2021/11/11 11:50:29;;;;;;;18.60;12.40;;;;;;;12.79;49.12;97283.59;105278;1314;26782;-82
2021/11/11 11:53:05;;;;;;;22.30;14.30;;;;;;;12.55;49.06;97284.59;105381;1309;26304;-83
2021/11/11 11:55:42;;;;;;;21.70;13.30;;;;;;;12.34;49.50;97280.20;105357;1309;27043;-83
2021/11/11 11:58:20;;;;;;;22.40;14.60;;;;;;;12.28;49.72;97286.89;105364;1315;23931;-83
2021/11/11 12:01:09;;;;;;;22.40;14.50;;;;;;;12.11;50.15;97285.77;105350;1309;25402;-82
2021/11/11 12:03:51;;;;;;;21.60;13.30;;;;;;;12.11;50.66;97288.44;105341;1313;29393;-83
2021/11/11 12:06:50;;;;;;;21.90;14.00;;;;;;;12.06;50.82;97288.66;105372;1316;28495;-83
2021/11/11 12:09:28;;;;;;;23.30;14.00;;;;;;;11.90;51.36;97290.52;105352;1311;25294;-83
2021/11/11 12:15:16;;;;;;;25.90;16.90;;;;;;;11.87;51.85;97297.59;105334;1311;28374;-83